Wellsburg, Kentucky
Current Conditions -  °F | °C
As of 12:15 PM on Friday 28 Nov 2014 (Local Time) from KFGX Reporting Station
Broken Clouds Broken Clouds  
Wind Chill: 23°   Ceiling: 9000
Heat Index: 31°   Visibility: 10mi
Dew Point: 20°   Wind: 9mph
Humidity: 62%   Direction: 220°SW
Pressure: 30.35"   Gusts: NA
Location:  38.7475°N, 84.1516°W
Report Text: KFGX 281715Z AUTO 22008KT 10SM SCT027 SCT060 BKN090 00/M07 A3035 RMK AO2 T10051069
Loading
Personal Weather Stations






























Interactive Weather Map New forecast layout! Learn more

10-Day Weather Forecast

Advertisements
Track Severe Weather on mobile